Time;durP1;ratioP1;P1;durP2;ratioP2;P2;SDS_P1;SDS_P2;PMS_P1;PMS_P2;Temp;Humidity;BMP_temperature;BMP_pressure;BME280_temperature;BME280_humidity;BME280_pressure;Samples;Min_cycle;Max_cycle;Signal;HPM_P1;HPM_P2
2021/05/15 00:02:25;;;;;;;2.67;0.50;;;22.20;50.80;;;;;;5112105;28;20085;-42
2021/05/15 00:05:10;;;;;;;2.17;0.77;;;22.20;50.80;;;;;;5111790;28;20041;-42
2021/05/15 00:07:55;;;;;;;1.23;0.75;;;22.20;50.80;;;;;;5112617;28;20043;-44
2021/05/15 00:10:40;;;;;;;1.35;0.50;;;22.20;50.80;;;;;;5112343;28;20027;-42
2021/05/15 00:13:25;;;;;;;1.73;0.60;;;22.20;50.80;;;;;;5110161;28;20062;-41
2021/05/15 00:16:09;;;;;;;1.90;0.52;;;22.20;50.80;;;;;;5111876;27;20057;-42
2021/05/15 00:18:54;;;;;;;0.95;0.63;;;22.20;50.80;;;;;;5112145;28;20506;-40
2021/05/15 00:21:39;;;;;;;1.45;0.60;;;22.20;50.80;;;;;;5110985;28;20556;-42
2021/05/15 00:24:23;;;;;;;1.55;0.60;;;22.20;50.80;;;;;;5112826;27;20111;-42
2021/05/15 00:27:08;;;;;;;1.60;0.65;;;22.20;50.80;;;;;;5111813;28;20091;-41
2021/05/15 00:29:52;;;;;;;2.05;0.63;;;22.20;50.80;;;;;;5110408;28;20043;-41
2021/05/15 00:32:37;;;;;;;1.27;0.50;;;22.20;50.70;;;;;;5111925;28;20505;-40
2021/05/15 00:35:22;;;;;;;1.88;0.65;;;22.20;50.80;;;;;;5111956;28;20527;-41
2021/05/15 00:38:06;;;;;;;1.60;0.70;;;22.20;50.80;;;;;;5110060;28;20038;-41
2021/05/15 00:40:51;;;;;;;1.15;0.60;;;22.20;50.80;;;;;;5111617;28;20403;-40
2021/05/15 00:43:36;;;;;;;1.15;0.63;;;22.20;50.80;;;;;;5112401;28;20091;-41
2021/05/15 00:46:20;;;;;;;0.90;0.55;;;22.20;50.80;;;;;;5110459;28;20092;-42
2021/05/15 00:49:08;;;;;;;0.95;0.47;;;22.20;50.80;;;;;;5111180;28;20163;-41
2021/05/15 00:51:53;;;;;;;0.88;0.50;;;22.20;50.80;;;;;;5112035;28;20043;-40
2021/05/15 00:54:40;;;;;;;0.70;0.40;;;22.20;50.80;;;;;;5110988;28;20074;-40
2021/05/15 00:57:24;;;;;;;2.00;0.40;;;22.20;50.80;;;;;;5110473;28;20042;-42
2021/05/15 01:00:12;;;;;;;2.95;0.73;;;22.20;50.80;;;;;;5103203;28;20038;-40
2021/05/15 01:02:57;;;;;;;0.98;0.47;;;22.20;50.80;;;;;;5110767;28;20642;-40
2021/05/15 01:05:41;;;;;;;1.05;0.70;;;22.20;50.80;;;;;;5101465;28;20065;-40
2021/05/15 01:08:27;;;;;;;1.13;0.57;;;22.20;50.80;;;;;;5111302;28;20039;-41
2021/05/15 01:11:18;;;;;;;2.47;0.80;;;22.20;50.80;;;;;;5098658;28;20035;-40
2021/05/15 01:14:04;;;;;;;1.08;0.50;;;22.20;50.80;;;;;;5109364;28;20046;-41
2021/05/15 01:16:49;;;;;;;1.75;0.70;;;22.20;50.80;;;;;;5111284;28;20123;-40
2021/05/15 01:19:34;;;;;;;0.93;0.43;;;22.20;50.80;;;;;;5111136;28;20464;-41
2021/05/15 01:22:19;;;;;;;0.88;0.52;;;22.20;50.80;;;;;;5109565;27;20107;-40
2021/05/15 01:25:04;;;;;;;0.70;0.60;;;22.20;50.80;;;;;;5111139;28;20055;-39
2021/05/15 01:27:48;;;;;;;0.82;0.50;;;22.20;50.80;;;;;;5110195;28;20042;-40
2021/05/15 01:30:33;;;;;;;1.60;0.60;;;22.20;50.70;;;;;;5109161;28;20096;-40
2021/05/15 01:33:17;;;;;;;1.00;0.50;;;22.20;50.80;;;;;;5110310;28;20042;-40
2021/05/15 01:36:02;;;;;;;1.40;0.60;;;22.20;50.80;;;;;;5101180;28;20414;-40
2021/05/15 01:38:47;;;;;;;1.52;0.60;;;22.20;50.70;;;;;;5110368;28;20031;-40
2021/05/15 01:41:32;;;;;;;1.05;0.60;;;22.20;50.80;;;;;;5110588;28;20080;-40
2021/05/15 01:44:16;;;;;;;0.50;0.40;;;22.20;50.80;;;;;;5111542;28;20108;-41
2021/05/15 01:47:01;;;;;;;0.75;0.45;;;22.20;50.70;;;;;;5099255;28;20104;-40
2021/05/15 01:49:49;;;;;;;1.55;0.50;;;22.20;50.70;;;;;;5110396;28;20049;-41
2021/05/15 01:52:34;;;;;;;0.40;0.40;;;22.20;50.70;;;;;;5110627;28;20058;-40
2021/05/15 01:55:22;;;;;;;1.30;0.55;;;22.20;50.80;;;;;;5110045;28;20047;-40
2021/05/15 01:58:06;;;;;;;0.90;0.50;;;22.20;50.80;;;;;;5109064;28;20043;-40
2021/05/15 02:00:52;;;;;;;1.08;0.50;;;22.20;50.80;;;;;;5110441;28;20460;-40
2021/05/15 02:03:41;;;;;;;1.17;0.65;;;22.20;50.80;;;;;;5109960;28;20039;-40
2021/05/15 02:06:26;;;;;;;1.42;0.47;;;22.20;50.70;;;;;;5109710;28;20497;-40
2021/05/15 02:09:10;;;;;;;1.00;0.63;;;22.20;50.70;;;;;;5109858;28;20530;-40
2021/05/15 02:11:55;;;;;;;1.10;0.55;;;22.20;50.70;;;;;;5110885;28;20055;-41
2021/05/15 02:14:40;;;;;;;1.17;0.50;;;22.20;50.70;;;;;;5108212;28;20546;-39
2021/05/15 02:17:24;;;;;;;1.95;0.70;;;22.20;50.80;;;;;;5109906;28;20398;-40
2021/05/15 02:20:09;;;;;;;2.05;0.77;;;22.10;50.70;;;;;;5110723;28;20066;-39
2021/05/15 02:22:54;;;;;;;1.08;0.47;;;22.20;50.80;;;;;;5109185;28;20080;-40
2021/05/15 02:25:39;;;;;;;1.45;0.73;;;22.10;50.70;;;;;;5110404;28;20026;-41
2021/05/15 02:28:24;;;;;;;0.82;0.50;;;22.20;50.80;;;;;;5100863;28;20126;-40
2021/05/15 02:31:09;;;;;;;0.70;0.38;;;22.10;50.70;;;;;;5108950;28;20514;-39
2021/05/15 02:33:53;;;;;;;0.95;0.38;;;22.10;50.70;;;;;;5110031;28;20031;-42
2021/05/15 02:36:38;;;;;;;1.05;0.60;;;22.10;50.70;;;;;;5110795;28;20038;-40
2021/05/15 02:39:23;;;;;;;0.90;0.63;;;22.10;50.70;;;;;;5110818;28;20035;-41
2021/05/15 02:42:07;;;;;;;1.00;0.70;;;22.10;50.70;;;;;;5113859;28;20038;-41
2021/05/15 02:44:52;;;;;;;1.17;0.70;;;22.10;50.60;;;;;;5114114;28;20034;-40
2021/05/15 02:47:36;;;;;;;0.85;0.50;;;22.10;50.70;;;;;;5113637;28;20046;-40
2021/05/15 02:50:23;;;;;;;1.08;0.52;;;22.20;50.70;;;;;;5113538;27;20123;-40
2021/05/15 02:53:07;;;;;;;1.55;0.60;;;22.10;50.70;;;;;;5113720;28;20051;-38
2021/05/15 02:55:52;;;;;;;0.80;0.50;;;22.10;50.70;;;;;;5113200;28;20107;-40
2021/05/15 02:58:36;;;;;;;1.70;0.65;;;22.10;50.70;;;;;;5112892;27;20057;-40
2021/05/15 03:01:21;;;;;;;1.08;0.60;;;22.10;50.70;;;;;;5114018;28;20084;-39
2021/05/15 03:04:06;;;;;;;0.85;0.57;;;22.10;50.70;;;;;;5113109;28;20050;-41
2021/05/15 03:06:50;;;;;;;1.80;0.60;;;22.10;50.70;;;;;;5102841;28;20256;-40
2021/05/15 03:09:34;;;;;;;1.88;0.60;;;22.10;50.70;;;;;;5105426;27;20035;-40
2021/05/15 03:12:19;;;;;;;1.67;0.60;;;22.10;50.70;;;;;;5113358;28;20067;-43
2021/05/15 03:15:11;;;;;;;1.23;0.50;;;22.10;51.20;;;;;;5111015;27;20097;-42
2021/05/15 03:17:56;;;;;;;1.58;0.55;;;22.10;50.70;;;;;;5113798;27;21012;-41
2021/05/15 03:20:40;;;;;;;1.13;0.70;;;22.20;50.80;;;;;;5113354;28;20069;-41
2021/05/15 03:23:26;;;;;;;1.13;0.60;;;22.10;50.70;;;;;;5111712;28;20054;-40
2021/05/15 03:26:10;;;;;;;2.78;0.68;;;22.20;50.80;;;;;;5113872;27;20443;-43
2021/05/15 03:28:55;;;;;;;1.77;0.60;;;22.10;50.70;;;;;;5113480;28;20402;-40
2021/05/15 03:31:39;;;;;;;1.17;0.68;;;22.10;50.60;;;;;;5112534;28;20038;-43
2021/05/15 03:34:24;;;;;;;0.82;0.60;;;22.20;50.80;;;;;;5112312;28;20137;-40
2021/05/15 03:37:08;;;;;;;1.00;0.60;;;22.10;50.70;;;;;;5113688;28;20042;-40
2021/05/15 03:39:53;;;;;;;1.08;0.75;;;22.10;50.70;;;;;;5112505;27;20039;-41
2021/05/15 03:42:38;;;;;;;1.17;0.68;;;22.10;50.70;;;;;;5112414;27;20055;-40
2021/05/15 03:45:23;;;;;;;0.80;0.55;;;22.20;50.80;;;;;;5113122;28;20038;-40
2021/05/15 03:48:07;;;;;;;0.98;0.60;;;22.20;50.80;;;;;;5111733;28;20050;-40
2021/05/15 03:50:53;;;;;;;0.65;0.52;;;22.20;50.80;;;;;;5111152;28;20042;-39
2021/05/15 03:53:37;;;;;;;1.05;0.50;;;22.10;50.70;;;;;;5105071;28;20518;-42
2021/05/15 03:56:22;;;;;;;0.75;0.60;;;22.10;50.70;;;;;;5112218;28;20038;-40
2021/05/15 03:59:07;;;;;;;0.70;0.43;;;22.10;50.70;;;;;;5111257;27;20055;-39
2021/05/15 04:01:51;;;;;;;1.05;0.60;;;22.10;50.70;;;;;;5112255;28;20046;-40
2021/05/15 04:04:37;;;;;;;0.93;0.50;;;22.10;50.70;;;;;;5112596;28;20038;-40
2021/05/15 04:07:21;;;;;;;0.68;0.45;;;22.20;50.80;;;;;;5112359;28;20198;-39
2021/05/15 04:10:07;;;;;;;1.48;0.70;;;22.10;50.70;;;;;;5112719;28;20046;-41
2021/05/15 04:15:58;;;;;;;0.63;0.38;;;22.10;50.70;;;;;;5111147;27;20073;-40
2021/05/15 04:18:42;;;;;;;0.65;0.43;;;22.20;50.80;;;;;;5111277;27;20080;-39
2021/05/15 04:21:27;;;;;;;1.17;0.68;;;22.20;50.80;;;;;;5112560;28;20038;-41
2021/05/15 04:24:11;;;;;;;0.80;0.60;;;22.20;50.80;;;;;;5101568;28;20042;-40
2021/05/15 04:26:59;;;;;;;0.63;0.52;;;22.20;50.80;;;;;;5103039;28;20399;-40
2021/05/15 04:29:45;;;;;;;0.88;0.60;;;22.20;50.80;;;;;;5112084;28;20050;-41
2021/05/15 04:32:29;;;;;;;0.50;0.50;;;22.10;50.70;;;;;;5111469;28;20035;-40
2021/05/15 04:35:14;;;;;;;1.02;0.47;;;22.10;50.70;;;;;;5111193;28;20415;-43
2021/05/15 04:38:00;;;;;;;0.95;0.60;;;22.10;50.70;;;;;;5111563;28;20044;-39
2021/05/15 04:40:45;;;;;;;1.50;0.60;;;22.10;50.70;;;;;;5111246;28;20609;-42
2021/05/15 04:43:30;;;;;;;0.52;0.47;;;22.10;50.70;;;;;;5110246;28;20047;-40
2021/05/15 04:46:14;;;;;;;2.08;0.50;;;22.20;50.80;;;;;;5112279;28;20083;-39
2021/05/15 04:48:59;;;;;;;0.95;0.50;;;22.20;50.80;;;;;;5111590;28;20110;-40
2021/05/15 04:51:44;;;;;;;0.85;0.60;;;22.10;50.70;;;;;;5110287;28;20081;-40
2021/05/15 04:54:29;;;;;;;0.80;0.50;;;22.10;51.30;;;;;;5111570;28;20034;-42
2021/05/15 04:57:14;;;;;;;0.80;0.60;;;22.20;50.80;;;;;;5111453;28;20572;-40
2021/05/15 04:59:59;;;;;;;1.13;0.50;;;22.10;50.70;;;;;;5109800;28;20100;-39
2021/05/15 05:02:43;;;;;;;0.65;0.50;;;22.10;50.70;;;;;;5111099;28;20074;-41
2021/05/15 05:05:28;;;;;;;1.27;0.60;;;22.10;50.70;;;;;;5111297;28;20398;-40
2021/05/15 05:08:13;;;;;;;1.08;0.70;;;22.10;50.70;;;;;;5110428;28;20089;-40
2021/05/15 05:10:57;;;;;;;0.82;0.60;;;22.20;50.80;;;;;;5111025;28;20034;-40
2021/05/15 05:13:41;;;;;;;1.33;0.43;;;22.10;50.60;;;;;;5110872;28;20042;-39
2021/05/15 05:16:26;;;;;;;0.77;0.60;;;22.20;50.80;;;;;;5109845;28;20099;-39
2021/05/15 05:19:12;;;;;;;1.02;0.47;;;22.10;50.70;;;;;;5102114;28;20562;-39
2021/05/15 05:21:59;;;;;;;1.70;0.52;;;22.20;50.80;;;;;;5111550;28;20054;-39
2021/05/15 05:24:45;;;;;;;1.00;0.50;;;22.10;50.60;;;;;;5110297;28;20414;-39
2021/05/15 05:27:30;;;;;;;0.77;0.50;;;22.10;50.60;;;;;;5111502;27;20029;-39
2021/05/15 05:30:19;;;;;;;0.68;0.50;;;22.20;50.80;;;;;;5100799;28;20045;-40
2021/05/15 05:33:04;;;;;;;0.50;0.50;;;22.10;50.60;;;;;;5100173;28;20521;-39
2021/05/15 05:35:49;;;;;;;0.90;0.50;;;22.10;50.60;;;;;;5110206;28;20403;-39
2021/05/15 05:38:33;;;;;;;0.85;0.60;;;22.20;50.80;;;;;;5110947;28;20544;-41
2021/05/15 05:41:20;;;;;;;0.90;0.50;;;22.20;50.80;;;;;;5098983;28;20058;-40
2021/05/15 05:44:05;;;;;;;0.85;0.55;;;22.20;50.80;;;;;;5109025;28;20039;-41
2021/05/15 05:46:50;;;;;;;0.45;0.40;;;22.20;50.80;;;;;;5111382;28;20151;-39
2021/05/15 05:49:34;;;;;;;0.70;0.63;;;22.20;50.70;;;;;;5110899;28;20411;-39
2021/05/15 05:52:20;;;;;;;1.10;0.60;;;22.20;50.70;;;;;;5109076;28;20044;-39
2021/05/15 05:55:07;;;;;;;1.45;0.60;;;22.20;50.80;;;;;;5110782;28;20088;-39
2021/05/15 05:57:51;;;;;;;0.68;0.50;;;22.20;50.70;;;;;;5110938;28;20100;-40
2021/05/15 06:00:36;;;;;;;0.57;0.50;;;22.20;50.70;;;;;;5109438;28;20141;-41
2021/05/15 06:03:21;;;;;;;0.70;0.55;;;22.20;50.70;;;;;;5110399;28;20159;-40
2021/05/15 06:06:05;;;;;;;0.98;0.50;;;22.20;50.70;;;;;;5110945;28;20038;-40
2021/05/15 06:08:50;;;;;;;0.68;0.38;;;22.20;51.30;;;;;;5109182;28;20042;-40
2021/05/15 06:11:34;;;;;;;0.93;0.57;;;22.20;50.70;;;;;;5109776;28;20185;-39
2021/05/15 06:14:19;;;;;;;1.00;0.47;;;22.20;50.70;;;;;;5111970;28;20082;-39
2021/05/15 06:17:04;;;;;;;0.88;0.60;;;22.20;50.80;;;;;;5113983;27;20062;-39
2021/05/15 06:19:50;;;;;;;0.60;0.50;;;22.20;50.70;;;;;;5115392;27;20091;-39
2021/05/15 06:22:35;;;;;;;0.70;0.50;;;22.20;50.70;;;;;;5115138;28;20043;-40
2021/05/15 06:25:19;;;;;;;0.75;0.50;;;22.20;50.70;;;;;;5114867;27;20046;-41
2021/05/15 06:28:04;;;;;;;0.80;0.50;;;22.20;50.70;;;;;;5114128;28;20042;-41
2021/05/15 06:30:48;;;;;;;0.88;0.60;;;22.20;50.70;;;;;;5115446;27;20109;-43
2021/05/15 06:33:33;;;;;;;0.95;0.50;;;22.20;50.70;;;;;;5114054;28;20042;-43
2021/05/15 06:36:17;;;;;;;1.10;0.45;;;22.20;50.70;;;;;;5112980;27;20106;-40
2021/05/15 06:39:03;;;;;;;1.15;0.60;;;22.20;50.70;;;;;;5114154;28;20038;-41
2021/05/15 06:41:48;;;;;;;0.70;0.50;;;22.20;50.70;;;;;;5113285;28;20047;-41
2021/05/15 06:44:32;;;;;;;0.95;0.52;;;22.20;50.70;;;;;;5113903;27;20440;-40
2021/05/15 06:47:17;;;;;;;0.60;0.50;;;22.20;50.70;;;;;;5114512;28;20155;-41
2021/05/15 06:50:04;;;;;;;1.17;0.60;;;22.20;50.70;;;;;;5113580;28;20046;-40
2021/05/15 06:52:48;;;;;;;0.82;0.60;;;22.20;50.70;;;;;;5112122;28;20394;-40
2021/05/15 06:55:32;;;;;;;;;;;22.20;50.70;;;;;;5114702;27;20163;-40
2021/05/15 06:58:17;;;;;;;0.40;0.40;;;22.20;50.70;;;;;;5113370;28;19934;-42
2021/05/15 07:01:01;;;;;;;0.60;0.40;;;22.20;50.70;;;;;;5112278;28;20058;-43
2021/05/15 07:03:46;;;;;;;1.30;0.70;;;22.20;50.80;;;;;;5113641;28;20034;-40
2021/05/15 07:06:30;;;;;;;0.82;0.50;;;22.20;50.80;;;;;;5113923;28;20050;-39
2021/05/15 07:09:15;;;;;;;0.70;0.60;;;22.20;50.70;;;;;;5112583;27;20035;-41
2021/05/15 07:11:59;;;;;;;1.15;0.52;;;22.20;50.70;;;;;;5104900;27;20455;-40
2021/05/15 07:14:45;;;;;;;0.85;0.52;;;22.20;50.80;;;;;;5113020;28;20513;-41
2021/05/15 07:17:29;;;;;;;0.90;0.50;;;22.20;50.70;;;;;;5111422;28;20069;-40
2021/05/15 07:20:14;;;;;;;0.70;0.60;;;22.20;50.70;;;;;;5112567;28;20395;-41
2021/05/15 07:22:59;;;;;;;1.02;0.52;;;22.20;50.80;;;;;;5113467;28;20081;-39
2021/05/15 07:25:43;;;;;;;1.00;0.65;;;22.20;50.80;;;;;;5111423;27;20122;-43
2021/05/15 07:28:30;;;;;;;0.77;0.57;;;22.20;50.70;;;;;;5112963;28;20394;-39
2021/05/15 07:31:14;;;;;;;0.85;0.45;;;22.20;50.70;;;;;;5112935;28;20489;-39
2021/05/15 07:34:01;;;;;;;0.47;0.38;;;22.20;50.70;;;;;;5112502;28;20079;-40
2021/05/15 07:36:45;;;;;;;0.77;0.57;;;22.20;50.70;;;;;;5111936;28;20100;-41
2021/05/15 07:39:30;;;;;;;0.68;0.52;;;22.20;50.70;;;;;;5115051;27;20104;-39
2021/05/15 07:42:15;;;;;;;1.00;0.63;;;22.20;50.70;;;;;;5112886;28;20441;-39
2021/05/15 07:45:00;;;;;;;0.93;0.63;;;22.20;50.70;;;;;;5111451;28;20521;-41
2021/05/15 07:47:44;;;;;;;0.80;0.40;;;22.20;50.70;;;;;;5113243;28;20039;-40
2021/05/15 07:50:29;;;;;;;0.93;0.57;;;22.20;50.70;;;;;;5112814;28;20042;-40
2021/05/15 07:53:14;;;;;;;0.75;0.50;;;22.20;50.70;;;;;;5111970;27;20038;-40
2021/05/15 07:55:58;;;;;;;0.60;0.30;;;22.20;50.70;;;;;;5112549;28;20106;-39
2021/05/15 07:58:43;;;;;;;1.52;0.65;;;22.20;50.70;;;;;;5103279;28;20046;-40
2021/05/15 08:01:28;;;;;;;0.70;0.60;;;22.20;50.70;;;;;;5111100;28;20399;-40
2021/05/15 08:04:12;;;;;;;0.80;0.50;;;22.20;50.70;;;;;;5112723;27;20039;-41
2021/05/15 08:06:57;;;;;;;0.68;0.60;;;22.20;50.70;;;;;;5112557;28;20131;-41
2021/05/15 08:09:42;;;;;;;1.77;0.63;;;22.20;50.70;;;;;;5111128;28;20558;-41
2021/05/15 08:12:26;;;;;;;0.90;0.50;;;22.20;50.70;;;;;;5112025;28;20130;-42
2021/05/15 08:15:11;;;;;;;0.50;0.50;;;22.20;50.70;;;;;;5089452;28;20121;-40
2021/05/15 08:17:56;;;;;;;0.57;0.50;;;22.20;50.70;;;;;;5079747;28;20050;-41
2021/05/15 08:20:40;;;;;;;0.90;0.50;;;22.20;50.70;;;;;;5080723;28;20035;-40
2021/05/15 08:23:25;;;;;;;0.30;0.30;;;22.20;50.70;;;;;;5081667;28;20389;-40
2021/05/15 08:26:11;;;;;;;0.88;0.45;;;22.20;50.70;;;;;;5077790;28;20098;-42
2021/05/15 08:28:56;;;;;;;0.52;0.40;;;22.20;50.80;;;;;;5080734;28;20075;-41
2021/05/15 08:31:41;;;;;;;0.70;0.30;;;22.20;50.70;;;;;;5081831;28;20105;-41
2021/05/15 08:34:25;;;;;;;1.15;0.57;;;22.20;50.70;;;;;;5078996;28;20085;-41
2021/05/15 08:37:10;;;;;;;0.47;0.30;;;22.20;50.70;;;;;;5079226;28;20055;-41
2021/05/15 08:39:54;;;;;;;1.73;0.60;;;22.20;50.70;;;;;;5080370;28;20097;-40
2021/05/15 08:42:40;;;;;;;1.00;0.45;;;22.20;50.70;;;;;;5077478;28;20031;-41
2021/05/15 08:45:26;;;;;;;0.85;0.50;;;22.20;50.70;;;;;;5078680;28;20086;-41
2021/05/15 08:48:12;;;;;;;0.55;0.40;;;22.20;50.70;;;;;;5081637;28;20063;-40
2021/05/15 08:50:58;;;;;;;0.85;0.60;;;22.20;50.70;;;;;;5079379;28;20128;-40
2021/05/15 08:53:42;;;;;;;1.13;0.57;;;22.30;50.80;;;;;;5076561;28;20117;-40
2021/05/15 08:56:28;;;;;;;0.70;0.50;;;22.20;50.60;;;;;;5081407;28;20063;-40
2021/05/15 08:59:13;;;;;;;1.00;0.57;;;22.30;50.80;;;;;;5079070;28;20490;-40
2021/05/15 09:01:58;;;;;;;1.25;0.55;;;22.20;50.70;;;;;;5076004;28;20036;-40
2021/05/15 09:04:45;;;;;;;0.70;0.40;;;22.30;50.70;;;;;;5078913;28;20052;-39
2021/05/15 09:07:13;;;;;;;0.65;0.47;;;22.30;50.70;;;;;;5078891;28;20094;-40
2021/05/15 09:09:40;;;;;;;0.63;0.50;;;22.30;50.70;;;;;;5079071;28;20068;-41
2021/05/15 09:12:07;;;;;;;0.70;0.50;;;22.30;50.70;;;;;;5079560;28;20139;-43
2021/05/15 09:14:34;;;;;;;0.65;0.45;;;22.30;50.70;;;;;;5083685;28;20058;-44
2021/05/15 09:17:01;;;;;;;0.60;0.40;;;22.30;50.70;;;;;;5101264;28;20155;-43
2021/05/15 09:19:29;;;;;;;0.65;0.50;;;22.30;50.70;;;;;;5111398;28;20044;-40
2021/05/15 09:22:15;;;;;;;0.70;0.50;;;22.30;50.70;;;;;;5108584;28;20395;-43
2021/05/15 09:24:44;;;;;;;0.70;0.50;;;22.30;50.70;;;;;;5110363;28;20048;-41
2021/05/15 09:27:12;;;;;;;0.98;0.70;;;22.30;50.70;;;;;;5110217;28;20056;-40
2021/05/15 09:29:44;;;;;;;1.00;0.50;;;22.30;50.70;;;;;;5110185;28;20065;-40
2021/05/15 09:32:27;;;;;;;0.60;0.40;;;22.30;50.70;;;;;;5100991;28;20465;-42
2021/05/15 09:34:54;;;;;;;0.75;0.40;;;22.30;50.60;;;;;;5109887;28;20079;-42
2021/05/15 09:37:43;;;;;;;0.65;0.50;;;22.30;50.70;;;;;;5099836;28;20098;-41
2021/05/15 09:40:28;;;;;;;0.88;0.50;;;22.30;50.60;;;;;;5111116;28;20047;-41
2021/05/15 09:43:09;;;;;;;0.80;0.50;;;22.30;50.60;;;;;;5110239;28;20104;-41
2021/05/15 09:45:38;;;;;;;0.60;0.50;;;22.30;50.60;;;;;;5109818;28;20051;-45
2021/05/15 09:48:34;;;;;;;0.73;0.45;;;22.30;50.60;;;;;;5110717;28;20077;-40
2021/05/15 09:50:58;;;;;;;0.82;0.68;;;22.30;50.60;;;;;;5109378;28;20719;-40
2021/05/15 09:53:26;;;;;;;0.70;0.50;;;22.30;50.60;;;;;;5110986;28;20069;-39
2021/05/15 09:55:54;;;;;;;0.70;0.60;;;22.30;50.60;;;;;;5110730;28;20051;-39
2021/05/15 09:58:25;;;;;;;0.50;0.40;;;22.30;50.60;;;;;;5108936;28;20047;-41
2021/05/15 10:00:52;;;;;;;0.68;0.50;;;22.30;50.60;;;;;;5100616;28;20090;-43
2021/05/15 10:03:23;;;;;;;0.75;0.60;;;22.30;50.60;;;;;;5109928;28;20141;-40
2021/05/15 10:06:07;;;;;;;0.63;0.45;;;22.30;51.20;;;;;;5109877;28;20047;-40
2021/05/15 10:08:36;;;;;;;0.50;0.47;;;22.30;50.60;;;;;;5111259;28;20446;-43
2021/05/15 10:11:05;;;;;;;0.50;0.50;;;22.30;50.60;;;;;;5109767;28;20282;-39
2021/05/15 10:13:34;;;;;;;0.52;0.38;;;22.30;50.50;;;;;;5109194;28;20067;-40
2021/05/15 10:16:02;;;;;;;0.55;0.55;;;22.30;50.50;;;;;;5110075;28;20109;-40
2021/05/15 10:18:31;;;;;;;0.63;0.55;;;22.30;51.10;;;;;;5109745;28;20047;-45
2021/05/15 10:20:59;;;;;;;1.80;0.50;;;22.30;50.50;;;;;;5100581;28;20071;-40
2021/05/15 10:23:28;;;;;;;0.65;0.45;;;22.30;50.50;;;;;;5110212;28;20039;-39
2021/05/15 10:26:06;;;;;;;0.98;0.47;;;22.40;50.60;;;;;;5109601;28;20063;-42
2021/05/15 10:28:37;;;;;;;0.40;0.40;;;22.30;50.50;;;;;;5111144;28;20051;-41
2021/05/15 10:31:15;;;;;;;0.98;0.47;;;22.30;50.60;;;;;;5109324;28;20127;-40
2021/05/15 10:33:48;;;;;;;0.60;0.40;;;22.30;50.60;;;;;;5110402;28;20461;-40
2021/05/15 10:36:24;;;;;;;0.87;0.50;;;22.40;50.60;;;;;;5110523;28;20086;-42
2021/05/15 10:38:54;;;;;;;0.47;0.30;;;22.30;50.50;;;;;;5108344;28;20044;-39
2021/05/15 10:41:26;;;;;;;0.65;0.50;;;22.30;50.60;;;;;;5110156;28;20127;-42
2021/05/15 10:43:56;;;;;;;0.75;0.50;;;22.30;50.50;;;;;;5098126;28;20082;-40
2021/05/15 10:46:29;;;;;;;1.10;0.60;;;22.40;50.60;;;;;;5109149;28;20147;-39
2021/05/15 10:49:11;;;;;;;0.98;0.60;;;22.40;50.60;;;;;;5110896;28;20071;-40
2021/05/15 10:51:41;;;;;;;0.40;0.40;;;22.40;50.60;;;;;;5109217;28;20548;-40
2021/05/15 10:54:10;;;;;;;0.65;0.50;;;22.40;50.60;;;;;;5108316;28;20168;-40
2021/05/15 10:56:49;;;;;;;1.17;0.47;;;22.40;50.60;;;;;;5110179;28;20040;-40
2021/05/15 10:59:21;;;;;;;0.50;0.45;;;22.40;50.50;;;;;;5108433;28;20556;-40
2021/05/15 11:01:56;;;;;;;0.70;0.40;;;22.40;50.60;;;;;;5113114;28;20039;-40
2021/05/15 11:04:28;;;;;;;0.88;0.65;;;22.40;50.60;;;;;;5113956;28;20100;-40
2021/05/15 11:07:02;;;;;;;0.60;0.50;;;22.40;50.50;;;;;;5112512;28;20388;-40
2021/05/15 11:09:31;;;;;;;0.70;0.40;;;22.40;50.50;;;;;;5114022;28;20055;-41
2021/05/15 11:12:11;;;;;;;0.70;0.40;;;22.40;50.50;;;;;;5113583;28;20055;-40
2021/05/15 11:14:40;;;;;;;1.02;0.52;;;22.40;50.50;;;;;;5112155;27;20075;-40
2021/05/15 11:17:19;;;;;;;0.55;0.50;;;22.40;50.50;;;;;;5112845;28;20047;-42
2021/05/15 11:19:56;;;;;;;0.60;0.50;;;22.40;50.50;;;;;;5113001;28;20052;-40
2021/05/15 11:22:44;;;;;;;0.60;0.40;;;22.40;50.50;;;;;;5112904;27;20483;-41
2021/05/15 11:25:14;;;;;;;0.40;0.40;;;22.40;50.50;;;;;;5113796;28;20142;-41
2021/05/15 11:27:47;;;;;;;0.60;0.50;;;22.40;50.50;;;;;;5100932;28;20047;-40
2021/05/15 11:30:21;;;;;;;0.50;0.40;;;22.40;50.40;;;;;;5112435;28;20075;-42
2021/05/15 11:32:59;;;;;;;0.65;0.38;;;22.40;50.40;;;;;;5113675;28;20086;-40
2021/05/15 11:35:27;;;;;;;0.75;0.50;;;22.40;50.40;;;;;;5111606;28;20051;-40
2021/05/15 11:38:21;;;;;;;1.30;0.70;;;22.40;50.40;;;;;;5116340;27;20044;-41
2021/05/15 11:40:48;;;;;;;0.68;0.40;;;22.40;50.50;;;;;;5125808;27;20043;-40
2021/05/15 11:43:20;;;;;;;1.52;0.50;;;22.40;50.50;;;;;;5101303;27;20040;-39
2021/05/15 11:45:47;;;;;;;0.77;0.43;;;22.40;50.50;;;;;;5133087;27;20461;-40
2021/05/15 11:48:21;;;;;;;0.57;0.50;;;22.40;50.50;;;;;;5128668;27;20044;-40
2021/05/15 11:51:11;;;;;;;0.52;0.40;;;22.40;50.50;;;;;;5118594;27;20380;-40
2021/05/15 11:53:46;;;;;;;0.55;0.45;;;22.40;50.40;;;;;;5129538;27;20050;-41
2021/05/15 11:56:18;;;;;;;0.68;0.50;;;22.40;50.40;;;;;;5114679;28;20122;-40
2021/05/15 11:58:56;;;;;;;0.40;0.40;;;22.40;50.40;;;;;;5118807;27;20477;-40
2021/05/15 12:01:33;;;;;;;0.32;0.30;;;22.40;50.40;;;;;;5127517;27;20036;-40
2021/05/15 12:04:18;;;;;;;0.90;0.50;;;22.40;50.40;;;;;;5119873;27;20138;-40
2021/05/15 12:06:51;;;;;;;0.85;0.45;;;22.40;50.40;;;;;;5124841;27;20058;-40
2021/05/15 12:09:19;;;;;;;0.70;0.50;;;22.40;50.40;;;;;;5122940;27;20051;-41
2021/05/15 12:11:46;;;;;;;0.60;0.45;;;22.40;50.40;;;;;;5125411;27;20126;-42
2021/05/15 12:14:19;;;;;;;0.68;0.50;;;22.40;50.40;;;;;;5114772;27;20043;-40
2021/05/15 12:16:46;;;;;;;0.45;0.40;;;22.40;50.40;;;;;;5115548;27;20109;-40
2021/05/15 12:19:32;;;;;;;0.60;0.50;;;22.40;50.40;;;;;;5115283;27;20036;-40
2021/05/15 12:22:10;;;;;;;0.40;0.35;;;22.40;50.40;;;;;;5115527;27;20040;-41
2021/05/15 12:24:41;;;;;;;0.65;0.45;;;22.40;50.40;;;;;;5113704;28;20074;-42
2021/05/15 12:27:15;;;;;;;0.77;0.40;;;22.40;50.40;;;;;;5115160;27;20063;-40
2021/05/15 12:29:44;;;;;;;0.52;0.40;;;22.40;50.40;;;;;;5115133;27;20079;-41
2021/05/15 12:32:11;;;;;;;0.95;0.50;;;22.40;50.40;;;;;;5115335;27;20458;-41
2021/05/15 12:34:40;;;;;;;0.75;0.30;;;22.40;50.40;;;;;;5113641;28;20048;-40
2021/05/15 12:37:20;;;;;;;1.15;0.60;;;22.40;50.40;;;;;;5114789;27;20036;-40
2021/05/15 12:39:52;;;;;;;0.55;0.50;;;22.40;50.40;;;;;;5095364;28;20066;-40
2021/05/15 12:42:30;;;;;;;0.40;0.40;;;22.40;50.40;;;;;;5113399;28;20074;-41
2021/05/15 12:45:08;;;;;;;0.60;0.40;;;22.40;50.40;;;;;;5119383;27;20043;-41
2021/05/15 12:47:36;;;;;;;0.65;0.50;;;22.40;50.40;;;;;;5125129;27;20044;-40
2021/05/15 12:50:26;;;;;;;0.57;0.32;;;22.40;50.30;;;;;;5113116;28;20043;-40
2021/05/15 12:53:26;;;;;;;0.85;0.50;;;22.40;50.40;;;;;;5119868;27;20047;-41
2021/05/15 12:55:54;;;;;;;0.60;0.40;;;22.40;50.40;;;;;;5065278;28;20090;-40
2021/05/15 12:58:23;;;;;;;0.55;0.35;;;22.40;50.40;;;;;;5048999;28;20128;-41
2021/05/15 13:01:04;;;;;;;0.75;0.52;;;22.40;50.30;;;;;;5066742;28;20075;-41
2021/05/15 13:03:33;;;;;;;0.43;0.40;;;22.40;50.40;;;;;;5057585;28;20501;-42
2021/05/15 13:06:11;;;;;;;0.88;0.50;;;22.40;50.30;;;;;;5050120;28;20501;-40
2021/05/15 13:08:38;;;;;;;0.50;0.30;;;22.40;50.30;;;;;;5050143;28;20465;-41
2021/05/15 13:11:13;;;;;;;1.02;0.50;;;22.40;50.30;;;;;;5051151;28;20471;-40
2021/05/15 13:13:44;;;;;;;0.30;0.30;;;22.40;50.30;;;;;;5049446;28;20131;-41
2021/05/15 13:16:12;;;;;;;0.50;0.40;;;22.40;50.30;;;;;;5049934;28;20494;-42
2021/05/15 13:18:41;;;;;;;1.38;0.40;;;22.40;50.30;;;;;;5049878;28;20093;-40
2021/05/15 13:21:10;;;;;;;0.35;0.32;;;22.40;50.30;;;;;;5048769;28;20045;-40
2021/05/15 13:23:37;;;;;;;0.50;0.38;;;22.40;50.30;;;;;;5053478;28;20144;-42
2021/05/15 13:26:06;;;;;;;0.93;0.57;;;22.40;50.30;;;;;;5055104;28;20094;-41
2021/05/15 13:28:38;;;;;;;0.68;0.40;;;22.40;50.30;;;;;;5061764;28;20072;-40
2021/05/15 13:31:06;;;;;;;0.40;0.40;;;22.40;50.30;;;;;;5051244;28;20441;-41
2021/05/15 13:33:34;;;;;;;0.50;0.40;;;22.40;50.30;;;;;;5104000;27;20097;-41
2021/05/15 13:36:02;;;;;;;0.73;0.50;;;22.40;50.30;;;;;;5112569;27;20134;-46
2021/05/15 13:38:29;;;;;;;1.85;0.47;;;22.40;50.30;;;;;;5128034;27;20074;-41
2021/05/15 13:40:56;;;;;;;0.82;0.60;;;22.40;50.30;;;;;;5095736;28;20039;-41
2021/05/15 13:43:23;;;;;;;0.50;0.43;;;22.40;50.30;;;;;;5114121;28;20074;-41
2021/05/15 13:45:50;;;;;;;0.60;0.32;;;22.40;50.30;;;;;;5112779;28;20073;-41
2021/05/15 13:48:30;;;;;;;0.55;0.40;;;22.40;50.30;;;;;;5131960;28;20099;-45
2021/05/15 13:51:08;;;;;;;0.40;0.30;;;22.40;50.30;;;;;;5113473;28;20495;-43
2021/05/15 13:53:39;;;;;;;0.50;0.32;;;22.40;50.30;;;;;;5077034;28;20416;-42
2021/05/15 13:56:07;;;;;;;0.38;0.30;;;22.40;50.30;;;;;;5131848;28;20085;-41
2021/05/15 13:58:35;;;;;;;0.70;0.50;;;22.40;50.30;;;;;;5113613;28;20044;-40
2021/05/15 14:01:07;;;;;;;0.60;0.50;;;22.40;50.30;;;;;;5113415;28;20127;-41